Time;durP1;ratioP1;P1;durP2;ratioP2;P2;SDS_P1;SDS_P2;PMS_P1;PMS_P2;Temp;Humidity;BMP_temperature;BMP_pressure;BME280_temperature;BME280_humidity;BME280_pressure;Samples;Min_cycle;Max_cycle;Signal;HPM_P1;HPM_P2
2022/08/29 00:02:13;;;;;;;3.25;1.33;;;;;;;15.66;67.44;101877.72;5030590;28;20044;-86
2022/08/29 00:04:38;;;;;;;3.95;1.20;;;;;;;15.63;67.79;101869.41;5045148;28;20033;-85
2022/08/29 00:07:04;;;;;;;4.03;1.15;;;;;;;15.61;67.88;101872.16;5031900;28;20033;-85
2022/08/29 00:09:29;;;;;;;5.20;1.60;;;;;;;15.58;68.13;101883.78;5028468;28;20036;-85
2022/08/29 00:11:55;;;;;;;4.00;1.20;;;;;;;15.53;68.31;101882.63;5029861;28;20037;-85
2022/08/29 00:14:20;;;;;;;16.02;2.63;;;;;;;15.46;68.44;101874.59;5041899;28;20030;-85
2022/08/29 00:16:46;;;;;;;3.03;1.25;;;;;;;15.40;68.84;101877.06;5041938;28;20052;-85
2022/08/29 00:19:11;;;;;;;4.15;1.27;;;;;;;15.38;68.76;101869.38;5046145;28;20097;-85
2022/08/29 00:21:37;;;;;;;4.72;1.30;;;;;;;15.35;68.83;101870.53;5032360;28;20025;-85
2022/08/29 00:24:02;;;;;;;3.03;1.50;;;;;;;15.34;68.70;101865.47;5039867;28;20477;-85
2022/08/29 00:26:28;;;;;;;5.22;1.73;;;;;;;15.31;68.84;101864.00;5028897;28;20114;-85
2022/08/29 00:28:53;;;;;;;5.35;2.05;;;;;;;15.31;68.84;101861.38;5030555;28;20033;-85
2022/08/29 00:31:19;;;;;;;4.03;1.27;;;;;;;15.28;69.11;101860.88;5028159;28;20029;-85
2022/08/29 00:33:44;;;;;;;4.78;1.55;;;;;;;15.26;69.16;101860.25;5025361;28;20109;-86
2022/08/29 00:36:10;;;;;;;3.47;1.45;;;;;;;15.25;69.45;101869.03;5028809;28;20032;-85
2022/08/29 00:38:36;;;;;;;7.57;1.17;;;;;;;15.22;69.23;101872.81;5030017;28;20375;-85
2022/08/29 00:41:02;;;;;;;9.05;1.38;;;;;;;15.21;69.55;101871.16;5040093;28;20025;-86
2022/08/29 00:43:30;;;;;;;8.93;1.77;;;;;;;15.19;69.46;101873.09;5026380;28;20529;-85
2022/08/29 00:46:04;;;;;;;4.47;1.27;;;;;;;15.14;69.68;101873.59;5044115;28;20033;-86
2022/08/29 00:48:31;;;;;;;3.88;1.10;;;;;;;15.09;70.34;101873.25;5018334;28;20390;-85
2022/08/29 00:51:05;;;;;;;7.30;1.73;;;;;;;15.06;70.15;101885.81;5045840;28;20036;-85
2022/08/29 00:53:40;;;;;;;5.65;1.70;;;;;;;15.03;70.40;101893.97;5027535;28;20121;-85
2022/08/29 00:56:08;;;;;;;5.05;1.45;;;;;;;14.95;70.49;101886.91;5044114;28;20052;-85
2022/08/29 00:58:39;;;;;;;5.72;1.60;;;;;;;14.92;70.71;101882.84;5019130;28;20029;-85
2022/08/29 01:01:05;;;;;;;5.20;1.90;;;;;;;14.90;70.85;101878.72;5029070;28;20036;-85
2022/08/29 01:03:34;;;;;;;7.05;2.28;;;;;;;14.89;70.56;101874.50;5036310;28;20479;-85
2022/08/29 01:06:01;;;;;;;5.70;1.70;;;;;;;14.88;70.74;101876.31;5027958;28;20039;-85
2022/08/29 01:08:29;;;;;;;4.88;1.60;;;;;;;14.87;70.95;101882.50;5028185;28;20147;-85
2022/08/29 01:13:41;;;;;;;4.82;1.63;;;;;;;14.77;71.18;101889.66;5045467;28;20033;-85
2022/08/29 01:16:09;;;;;;;9.00;1.73;;;;;;;14.68;71.90;101887.97;5039721;28;20072;-85
2022/08/29 01:18:38;;;;;;;2.72;1.73;;;;;;;14.64;71.92;101884.03;5025632;28;20398;-85
2022/08/29 01:21:20;;;;;;;5.60;1.40;;;;;;;14.64;71.84;101873.59;5033338;28;20039;-85
2022/08/29 01:24:14;;;;;;;3.85;1.50;;;;;;;14.63;71.79;101883.19;5038080;28;20025;-85
2022/08/29 01:26:46;;;;;;;3.78;1.75;;;;;;;14.63;71.85;101892.84;5024349;28;20051;-85
2022/08/29 01:29:14;;;;;;;3.88;1.33;;;;;;;14.62;71.60;101891.19;5026924;28;20033;-86
2022/08/29 01:31:45;;;;;;;4.22;1.60;;;;;;;14.59;71.86;101897.53;5023758;28;20043;-85
2022/08/29 01:34:11;;;;;;;5.82;1.90;;;;;;;14.57;71.85;101899.50;5040803;28;20087;-84
2022/08/29 01:36:38;;;;;;;5.32;1.40;;;;;;;14.57;71.73;101891.66;5040752;28;20037;-85
2022/08/29 01:39:05;;;;;;;7.80;1.77;;;;;;;14.54;72.06;101900.59;5026599;28;20033;-85
2022/08/29 01:41:31;;;;;;;5.40;1.60;;;;;;;14.51;72.25;101895.69;5021260;28;20044;-85
2022/08/29 01:43:58;;;;;;;7.13;1.80;;;;;;;14.46;72.55;101900.53;5024799;28;20128;-85
2022/08/29 01:46:28;;;;;;;4.63;1.45;;;;;;;14.37;73.15;101898.84;5033614;28;20032;-85
2022/08/29 01:48:54;;;;;;;5.15;1.30;;;;;;;14.32;73.49;101907.16;5037494;28;20025;-85
2022/08/29 01:51:20;;;;;;;6.22;1.60;;;;;;;14.27;73.69;101898.16;5025342;28;20753;-85
2022/08/29 01:53:46;;;;;;;4.78;1.38;;;;;;;14.25;73.68;101908.72;5023081;28;20025;-85
2022/08/29 01:56:26;;;;;;;5.28;1.35;;;;;;;14.26;73.67;101910.38;5031421;28;20401;-85
2022/08/29 01:58:53;;;;;;;6.28;1.73;;;;;;;14.23;73.82;101904.66;5037227;28;20033;-86
2022/08/29 02:01:24;;;;;;;5.53;1.88;;;;;;;14.19;74.05;101911.97;5039333;28;20048;-86
2022/08/29 02:03:50;;;;;;;5.47;1.50;;;;;;;14.17;74.30;101906.09;5037911;28;20785;-86
2022/08/29 02:06:15;;;;;;;5.82;1.60;;;;;;;14.13;74.13;101900.34;5020696;28;20039;-85
2022/08/29 02:08:43;;;;;;;3.05;1.27;;;;;;;14.10;74.23;101903.25;5024318;28;20086;-85
2022/08/29 02:11:10;;;;;;;5.95;1.95;;;;;;;14.08;74.19;101907.81;5027189;28;20048;-86
2022/08/29 02:13:44;;;;;;;6.75;1.80;;;;;;;14.08;73.98;101910.41;5018626;28;20022;-85
2022/08/29 02:16:11;;;;;;;6.10;1.98;;;;;;;14.07;73.98;101916.63;5025742;28;20397;-84
2022/08/29 02:18:37;;;;;;;11.75;2.53;;;;;;;14.06;74.07;101917.56;5037216;28;20025;-85
2022/08/29 02:21:03;;;;;;;8.77;1.70;;;;;;;14.05;74.03;101915.09;5041106;28;20375;-85
2022/08/29 02:23:29;;;;;;;3.92;1.60;;;;;;;14.02;74.14;101921.47;5033445;28;20095;-85
2022/08/29 02:25:54;;;;;;;5.20;1.48;;;;;;;13.98;74.27;101925.34;5041278;28;20126;-85
2022/08/29 02:28:20;;;;;;;5.70;1.45;;;;;;;13.89;74.76;101916.63;5040564;28;20045;-85
2022/08/29 02:30:49;;;;;;;3.65;1.50;;;;;;;13.86;75.33;101922.13;5027223;28;20128;-85
2022/08/29 02:33:16;;;;;;;6.28;1.60;;;;;;;13.87;75.25;101915.16;5041881;28;20132;-85
2022/08/29 02:35:42;;;;;;;4.75;1.77;;;;;;;13.79;75.39;101911.50;5029692;28;20033;-85
2022/08/29 02:38:09;;;;;;;3.83;1.75;;;;;;;13.76;75.61;101916.19;5041106;28;20029;-85
2022/08/29 02:40:35;;;;;;;7.28;1.60;;;;;;;13.67;76.02;101907.47;5044015;28;20049;-85
2022/08/29 02:43:01;;;;;;;3.83;1.15;;;;;;;13.55;76.51;101912.09;5022624;28;20022;-85
2022/08/29 02:45:27;;;;;;;4.55;1.40;;;;;;;13.53;76.97;101918.44;5040433;28;20057;-85
2022/08/29 02:47:52;;;;;;;2.67;1.35;;;;;;;13.53;76.88;101913.22;5025102;28;20155;-85
2022/08/29 02:50:18;;;;;;;4.53;1.55;;;;;;;13.51;76.76;101917.75;5037959;28;20125;-85
2022/08/29 02:52:45;;;;;;;3.53;1.45;;;;;;;13.48;76.90;101915.44;5037157;28;20112;-85
2022/08/29 02:55:14;;;;;;;5.38;1.42;;;;;;;13.50;77.12;101923.94;5036664;28;20044;-85
2022/08/29 02:57:40;;;;;;;4.20;1.88;;;;;;;13.50;76.97;101923.94;5025738;28;20036;-85
2022/08/29 03:00:08;;;;;;;8.82;1.80;;;;;;;13.51;76.98;101922.97;5023413;28;20087;-85
2022/08/29 03:02:34;;;;;;;3.53;2.28;;;;;;;13.51;76.91;101920.38;5017217;28;20045;-85
2022/08/29 03:04:59;;;;;;;5.50;2.13;;;;;;;13.50;76.89;101918.72;5027473;28;20263;-86
2022/08/29 03:07:25;;;;;;;4.28;1.70;;;;;;;13.48;76.94;101911.03;5023424;28;20036;-85
2022/08/29 03:09:51;;;;;;;5.82;1.70;;;;;;;13.48;76.89;101899.81;5025124;28;20036;-85
2022/08/29 03:12:17;;;;;;;10.80;1.80;;;;;;;13.48;77.05;101905.81;5022580;28;20029;-85
2022/08/29 03:14:54;;;;;;;3.90;1.52;;;;;;;13.40;77.25;101898.75;5055972;28;20452;-85
2022/08/29 03:17:20;;;;;;;9.07;1.63;;;;;;;13.24;77.46;101906.38;5024301;28;20036;-85
2022/08/29 03:19:45;;;;;;;3.28;1.50;;;;;;;13.19;78.06;101904.22;5041104;28;20041;-86
2022/08/29 03:22:10;;;;;;;5.50;1.48;;;;;;;13.17;78.12;101906.16;5037343;28;20026;-86
2022/08/29 03:24:36;;;;;;;6.60;1.80;;;;;;;13.16;78.30;101903.69;5029342;28;20032;-85
2022/08/29 03:27:02;;;;;;;3.00;1.35;;;;;;;13.16;78.17;101895.88;5041294;28;20318;-85
2022/08/29 03:29:28;;;;;;;4.82;2.00;;;;;;;13.16;78.52;101895.88;5024730;28;20036;-85
2022/08/29 03:31:57;;;;;;;5.03;1.80;;;;;;;13.11;78.53;101887.66;5035937;28;20678;-85
2022/08/29 03:34:23;;;;;;;6.97;1.92;;;;;;;13.10;78.96;101894.66;5036084;28;20047;-85
2022/08/29 03:36:49;;;;;;;5.05;1.80;;;;;;;13.08;78.95;101890.56;5027730;28;20446;-85
2022/08/29 03:39:15;;;;;;;2.67;1.80;;;;;;;13.02;79.02;101884.97;5041206;28;20131;-85
2022/08/29 03:41:40;;;;;;;7.43;2.17;;;;;;;13.04;79.32;101890.84;5021470;28;20028;-85
2022/08/29 03:44:06;;;;;;;5.95;1.98;;;;;;;13.04;79.10;101888.25;5027147;28;20036;-85
2022/08/29 03:46:32;;;;;;;4.38;1.83;;;;;;;12.93;79.57;101879.84;5025709;28;20041;-85
2022/08/29 03:48:57;;;;;;;6.05;2.15;;;;;;;12.81;79.53;101880.03;5042072;28;20040;-86
2022/08/29 03:51:23;;;;;;;4.43;1.90;;;;;;;12.70;80.22;101877.59;5037772;28;20041;-85
2022/08/29 03:53:48;;;;;;;5.32;1.95;;;;;;;12.66;80.56;101879.69;5025328;28;20069;-85
2022/08/29 03:56:14;;;;;;;5.10;1.70;;;;;;;12.69;80.19;101883.75;5025427;28;20036;-85
2022/08/29 03:58:39;;;;;;;6.18;2.30;;;;;;;12.73;80.14;101879.09;5040645;28;20171;-85
2022/08/29 04:01:05;;;;;;;8.43;2.33;;;;;;;12.75;80.31;101877.16;5021475;28;20037;-85
2022/08/29 04:03:31;;;;;;;4.47;2.67;;;;;;;12.79;80.42;101875.91;5024770;28;20025;-85
2022/08/29 04:05:57;;;;;;;6.68;1.85;;;;;;;12.78;80.56;101875.09;5029094;28;20474;-85
2022/08/29 04:08:22;;;;;;;5.53;2.42;;;;;;;12.74;81.25;101873.75;5037921;28;20041;-85
2022/08/29 04:10:48;;;;;;;8.25;2.30;;;;;;;12.73;81.49;101881.69;5040401;28;20052;-85
2022/08/29 04:13:14;;;;;;;5.50;2.25;;;;;;;12.71;81.74;101874.03;5036660;28;20060;-85
2022/08/29 04:15:41;;;;;;;5.40;2.20;;;;;;;12.72;81.47;101877.47;5023640;28;20037;-86
2022/08/29 04:18:08;;;;;;;5.60;2.38;;;;;;;12.72;81.51;101874.88;5025195;28;20600;-85
2022/08/29 04:20:37;;;;;;;6.57;2.45;;;;;;;12.69;81.51;101869.94;5024504;28;20048;-85
2022/08/29 04:23:04;;;;;;;6.03;2.42;;;;;;;12.64;81.19;101875.59;5043133;28;20517;-85
2022/08/29 04:25:35;;;;;;;4.90;1.98;;;;;;;12.52;81.71;101874.94;5045943;28;20033;-85
2022/08/29 04:28:02;;;;;;;5.82;2.38;;;;;;;12.46;81.96;101878.09;5031496;28;20029;-86
2022/08/29 04:30:28;;;;;;;7.47;2.55;;;;;;;12.44;82.18;101886.03;5045132;28;20037;-85
2022/08/29 04:32:53;;;;;;;6.45;2.65;;;;;;;12.44;82.10;101885.22;5033505;28;20438;-85
2022/08/29 04:35:20;;;;;;;9.98;2.72;;;;;;;12.44;82.38;101891.25;5025417;28;20036;-85
2022/08/29 04:37:45;;;;;;;5.10;2.95;;;;;;;12.49;82.36;101890.84;5023807;28;20575;-85
2022/08/29 04:40:14;;;;;;;5.05;2.42;;;;;;;12.53;82.28;101900.00;5023096;28;20041;-86
2022/08/29 04:42:40;;;;;;;6.30;2.70;;;;;;;12.55;82.78;101911.06;5024396;28;20036;-85
2022/08/29 04:45:08;;;;;;;7.47;3.17;;;;;;;12.57;83.10;101903.94;5040517;28;20041;-85
2022/08/29 04:47:37;;;;;;;7.05;2.55;;;;;;;12.59;82.74;101896.81;5042544;28;20079;-86
2022/08/29 04:50:03;;;;;;;8.85;2.60;;;;;;;12.61;82.79;101897.50;5024583;28;20028;-85
2022/08/29 04:52:29;;;;;;;4.30;2.17;;;;;;;12.64;82.25;101902.41;5041339;28;20033;-85
2022/08/29 04:54:55;;;;;;;8.50;3.25;;;;;;;12.64;82.04;101894.63;5026819;28;20135;-85
2022/08/29 04:57:22;;;;;;;5.60;2.58;;;;;;;12.63;82.46;101897.34;5040086;28;20522;-85
2022/08/29 04:59:52;;;;;;;6.43;2.80;;;;;;;12.58;82.77;101904.75;5027828;28;20816;-85
2022/08/29 05:02:18;;;;;;;6.85;2.75;;;;;;;12.50;83.05;101904.66;5036575;28;20040;-85
2022/08/29 05:04:45;;;;;;;11.02;2.53;;;;;;;12.48;83.17;101899.59;5025317;28;20029;-85
2022/08/29 05:07:11;;;;;;;6.22;3.03;;;;;;;12.50;83.25;101900.25;5042117;28;20399;-86
2022/08/29 05:09:36;;;;;;;6.82;3.33;;;;;;;12.51;83.20;101899.31;5038679;28;20063;-86
2022/08/29 05:12:02;;;;;;;6.38;2.50;;;;;;;12.52;83.29;101900.13;5021989;28;20818;-86
2022/08/29 05:14:28;;;;;;;5.90;2.67;;;;;;;12.52;83.42;101892.31;5026860;28;20208;-84
2022/08/29 05:16:53;;;;;;;9.85;3.50;;;;;;;12.52;83.72;101908.75;5025219;28;20593;-84
2022/08/29 05:19:19;;;;;;;6.95;2.85;;;;;;;12.54;83.95;101909.41;5041106;28;21819;-85
2022/08/29 05:21:45;;;;;;;11.25;3.17;;;;;;;12.57;83.86;101909.16;5021632;28;20041;-86
2022/08/29 05:24:11;;;;;;;4.63;2.85;;;;;;;12.61;83.46;101910.50;5041190;28;20029;-85
2022/08/29 05:26:43;;;;;;;8.10;2.97;;;;;;;12.64;83.63;101907.63;5026345;28;20538;-85
2022/08/29 05:29:10;;;;;;;8.93;2.75;;;;;;;12.60;84.34;101919.28;5040756;28;20048;-85
2022/08/29 05:31:39;;;;;;;5.00;2.75;;;;;;;12.57;84.44;101919.56;5025511;28;20036;-85
2022/08/29 05:34:05;;;;;;;9.35;2.92;;;;;;;12.58;85.02;101926.41;5036251;28;20060;-85
2022/08/29 05:36:32;;;;;;;5.47;2.90;;;;;;;12.61;85.06;101925.31;5029035;28;20573;-85
2022/08/29 05:38:58;;;;;;;9.65;2.40;;;;;;;12.68;84.53;101920.34;5025262;28;20032;-85
2022/08/29 05:41:24;;;;;;;6.68;2.38;;;;;;;12.76;83.94;101916.06;5040239;28;20086;-86
2022/08/29 05:43:49;;;;;;;8.60;2.25;;;;;;;12.82;84.11;101925.09;5027264;28;20025;-84
2022/08/29 05:46:15;;;;;;;7.35;2.75;;;;;;;12.86;84.70;101931.63;5040865;28;20642;-85
2022/08/29 05:48:41;;;;;;;7.03;2.53;;;;;;;12.88;84.98;101931.50;5026288;28;20127;-85
2022/08/29 05:51:12;;;;;;;7.28;3.13;;;;;;;12.91;85.23;101926.00;5039591;28;20033;-85
2022/08/29 05:53:38;;;;;;;7.10;2.80;;;;;;;12.96;85.41;101942.00;5024528;28;20041;-85
2022/08/29 05:56:04;;;;;;;10.25;2.85;;;;;;;13.02;85.32;101938.84;5037529;28;20028;-86
2022/08/29 05:58:29;;;;;;;8.43;3.05;;;;;;;13.09;85.56;101941.66;5040137;28;20029;-85
2022/08/29 06:00:54;;;;;;;9.77;3.08;;;;;;;13.17;85.50;101937.38;5038895;28;20482;-85
2022/08/29 06:03:20;;;;;;;11.90;3.88;;;;;;;13.22;85.21;101940.38;5021446;28;20095;-85
2022/08/29 06:05:50;;;;;;;11.68;3.72;;;;;;;13.32;84.82;101945.56;5025287;28;20041;-85
2022/08/29 06:08:15;;;;;;;11.82;3.60;;;;;;;13.35;85.02;101942.66;5019674;28;20037;-85
2022/08/29 06:10:43;;;;;;;9.18;3.60;;;;;;;13.40;85.14;101950.03;5014915;28;20041;-84
2022/08/29 06:13:09;;;;;;;8.40;3.13;;;;;;;13.44;85.26;101954.81;5040452;28;20056;-84
2022/08/29 06:15:35;;;;;;;8.88;3.08;;;;;;;13.51;84.86;101949.84;5023781;28;20534;-84
2022/08/29 06:18:00;;;;;;;10.20;3.63;;;;;;;13.59;84.75;101949.91;5027549;28;20033;-85
2022/08/29 06:20:26;;;;;;;8.68;3.38;;;;;;;13.64;84.81;101949.47;5039967;28;20037;-85
2022/08/29 06:22:51;;;;;;;11.85;3.92;;;;;;;13.67;84.38;101950.97;5021367;28;20033;-85
2022/08/29 06:25:17;;;;;;;7.25;3.30;;;;;;;13.73;84.11;101953.81;5037018;28;20056;-84
2022/08/29 06:27:42;;;;;;;10.88;3.50;;;;;;;13.75;83.99;101951.88;5035867;28;20029;-84
2022/08/29 06:30:08;;;;;;;11.00;3.17;;;;;;;13.80;83.40;101952.22;5025760;28;20037;-84
2022/08/29 06:32:33;;;;;;;10.43;4.10;;;;;;;13.86;82.99;101963.03;5040635;28;20030;-85
2022/08/29 06:34:59;;;;;;;8.45;4.05;;;;;;;13.93;82.87;101967.50;5041471;28;20107;-85
2022/08/29 06:37:37;;;;;;;13.43;4.43;;;;;;;13.99;82.66;101960.84;5023532;28;20033;-85
2022/08/29 06:40:03;;;;;;;7.32;3.45;;;;;;;14.05;82.58;101962.84;5018506;28;20094;-84
2022/08/29 06:42:29;;;;;;;12.98;3.75;;;;;;;14.11;82.04;101959.66;5038088;28;20025;-84
2022/08/29 06:44:54;;;;;;;9.52;4.13;;;;;;;14.20;81.59;101956.16;5040777;28;20036;-84
2022/08/29 06:47:20;;;;;;;14.10;4.00;;;;;;;14.26;81.79;101953.88;5040857;28;20037;-84
2022/08/29 06:49:45;;;;;;;7.75;3.97;;;;;;;14.40;81.77;101959.38;5041126;28;20087;-84
2022/08/29 06:52:11;;;;;;;13.73;7.00;;;;;;;14.64;81.10;101962.34;5026110;28;20517;-82
2022/08/29 06:54:37;;;;;;;12.65;4.10;;;;;;;14.75;80.42;101970.72;5020569;28;20040;-83
2022/08/29 06:57:02;;;;;;;12.35;4.55;;;;;;;15.06;79.19;101972.81;5046302;28;20041;-84
2022/08/29 06:59:28;;;;;;;12.80;4.72;;;;;;;15.32;78.14;101971.94;5025880;28;20414;-84
2022/08/29 07:01:54;;;;;;;10.23;4.63;;;;;;;15.85;76.16;101975.19;5023620;28;20025;-85
2022/08/29 07:04:19;;;;;;;12.30;4.38;;;;;;;16.32;73.65;101972.72;5037177;28;20410;-85
2022/08/29 07:06:45;;;;;;;14.55;5.00;;;;;;;17.22;70.37;101976.91;5022885;28;20509;-85
2022/08/29 07:09:11;;;;;;;9.68;5.03;;;;;;;17.78;67.76;101968.03;5022736;28;20059;-85
2022/08/29 07:11:40;;;;;;;11.38;4.07;;;;;;;18.19;66.13;101958.03;5042663;28;20127;-85
2022/08/29 07:14:07;;;;;;;9.73;4.30;;;;;;;18.79;63.78;101953.63;5035804;28;20501;-84
2022/08/29 07:16:34;;;;;;;13.68;4.22;;;;;;;19.15;60.75;101949.44;5042952;28;20052;-84
2022/08/29 07:19:03;;;;;;;13.00;3.90;;;;;;;19.74;59.30;101943.19;5038057;28;20013;-85
2022/08/29 07:21:29;;;;;;;11.88;4.00;;;;;;;20.04;57.95;101946.47;5023319;28;20044;-85
2022/08/29 07:23:57;;;;;;;9.73;4.22;;;;;;;19.86;57.88;101954.84;5039699;28;20074;-84
2022/08/29 07:26:30;;;;;;;12.73;3.92;;;;;;;19.62;58.74;101945.50;5025566;28;20036;-85
2022/08/29 07:28:59;;;;;;;11.82;4.32;;;;;;;19.24;59.44;101945.72;5022141;28;20585;-85
2022/08/29 07:31:25;;;;;;;13.48;4.22;;;;;;;19.16;59.88;101949.28;5019190;28;20421;-85
2022/08/29 07:33:51;;;;;;;19.52;4.43;;;;;;;20.01;57.24;101947.66;5040148;28;20045;-84
2022/08/29 07:36:16;;;;;;;13.57;4.88;;;;;;;20.12;57.45;101948.16;5039535;28;20033;-84
2022/08/29 07:38:42;;;;;;;11.38;3.78;;;;;;;20.68;56.02;101950.78;5039164;28;20037;-84
2022/08/29 07:41:13;;;;;;;10.80;3.92;;;;;;;21.19;53.72;101950.34;5042455;28;20317;-84
2022/08/29 07:43:39;;;;;;;14.27;4.82;;;;;;;20.71;54.14;101945.09;5024187;28;20064;-84
2022/08/29 07:46:16;;;;;;;9.82;3.65;;;;;;;20.75;54.18;101943.69;5045886;28;20470;-85
2022/08/29 07:48:42;;;;;;;12.95;4.05;;;;;;;20.58;54.12;101942.38;5044690;28;20053;-84
2022/08/29 07:51:11;;;;;;;15.38;4.25;;;;;;;20.16;55.56;101950.22;5027047;28;20140;-84
2022/08/29 07:53:37;;;;;;;11.00;3.42;;;;;;;19.62;55.27;101954.19;5027399;28;20037;-84
2022/08/29 07:56:11;;;;;;;14.60;3.72;;;;;;;19.12;56.14;101953.28;5026301;28;20048;-85
2022/08/29 07:58:36;;;;;;;10.32;3.67;;;;;;;18.81;57.90;101961.38;5033023;28;20134;-84
2022/08/29 08:01:02;;;;;;;14.05;4.32;;;;;;;18.73;59.09;101961.44;5043729;28;20112;-84
2022/08/29 08:03:32;;;;;;;12.23;3.60;;;;;;;18.70;60.18;101962.59;5028626;28;20115;-84
2022/08/29 08:05:58;;;;;;;26.92;4.13;;;;;;;18.78;60.38;101959.91;5026916;28;20036;-84
2022/08/29 08:08:24;;;;;;;11.30;3.25;;;;;;;18.89;59.86;101961.25;5037841;28;21019;-84
2022/08/29 08:10:50;;;;;;;14.13;3.50;;;;;;;18.91;59.69;101950.56;5046176;28;20063;-84
2022/08/29 08:13:16;;;;;;;12.88;3.80;;;;;;;19.00;59.06;101960.00;5028082;28;20031;-84
2022/08/29 08:15:41;;;;;;;14.15;4.28;;;;;;;18.97;57.78;101958.56;5026144;28;20035;-84
2022/08/29 08:18:07;;;;;;;12.43;3.75;;;;;;;19.01;58.27;101951.13;5041120;28;20033;-84
2022/08/29 08:20:33;;;;;;;10.82;3.63;;;;;;;19.03;58.84;101962.25;5042097;28;20103;-84
2022/08/29 08:22:59;;;;;;;11.43;3.92;;;;;;;19.05;57.08;101958.44;5025049;28;20025;-84
2022/08/29 08:25:25;;;;;;;14.88;4.30;;;;;;;19.23;56.59;101951.97;5027850;28;20033;-85
2022/08/29 08:27:51;;;;;;;16.50;4.65;;;;;;;19.52;55.02;101958.97;5027819;28;20033;-84
2022/08/29 08:30:16;;;;;;;15.52;5.25;;;;;;;20.16;53.37;101958.13;5041826;28;20430;-84
2022/08/29 08:32:42;;;;;;;13.50;4.13;;;;;;;20.75;51.85;101951.59;5028423;28;20090;-85
2022/08/29 08:35:18;;;;;;;9.25;3.75;;;;;;;21.52;49.73;101954.91;5021412;28;20056;-85
2022/08/29 08:37:44;;;;;;;15.82;4.38;;;;;;;20.90;50.09;101953.28;5028474;28;20142;-84
2022/08/29 08:40:21;;;;;;;14.18;4.40;;;;;;;20.44;51.38;101959.91;5041861;28;20509;-84
2022/08/29 08:42:48;;;;;;;18.42;4.10;;;;;;;20.26;52.50;101959.59;5027645;28;20021;-84
2022/08/29 08:45:18;;;;;;;14.07;5.65;;;;;;;20.51;51.53;101960.78;5042159;28;20575;-84
2022/08/29 08:47:52;;;;;;;10.95;3.85;;;;;;;20.39;51.65;101957.06;5028750;28;20866;-84
2022/08/29 08:50:37;;;;;;;17.45;4.63;;;;;;;19.94;52.81;101957.31;5025370;28;20741;-84
2022/08/29 08:53:15;;;;;;;11.05;3.75;;;;;;;19.63;54.22;101955.03;5047609;28;20064;-84
2022/08/29 08:55:45;;;;;;;16.05;4.25;;;;;;;19.70;54.96;101960.31;5028353;28;20054;-85
2022/08/29 08:58:38;;;;;;;16.15;4.38;;;;;;;19.95;53.60;101958.97;5025827;28;20132;-84
2022/08/29 09:01:30;;;;;;;15.48;4.78;;;;;;;19.99;52.93;101959.41;5027761;28;20172;-84
2022/08/29 09:04:13;;;;;;;20.27;4.63;;;;;;;20.06;53.04;101957.66;5029872;28;20041;-84
2022/08/29 09:06:51;;;;;;;;;;;;;;;20.38;52.38;101956.25;5028963;28;20051;-85
2022/08/29 09:09:41;;;;;;;11.38;3.40;;;;;;;20.41;51.79;101963.75;5027878;28;19924;-84
2022/08/29 09:12:16;;;;;;;13.38;4.47;;;;;;;21.33;49.13;101955.66;5044739;28;20029;-84
2022/08/29 09:14:51;;;;;;;10.07;2.97;;;;;;;22.12;46.94;101948.81;5037472;28;20091;-84
2022/08/29 09:17:29;;;;;;;12.23;3.60;;;;;;;22.45;47.50;101948.81;5028731;28;20036;-84
2022/08/29 09:19:56;;;;;;;13.88;4.05;;;;;;;22.61;45.35;101960.72;5042532;28;20029;-85
2022/08/29 09:22:25;;;;;;;11.00;4.10;;;;;;;22.69;45.06;101957.03;5024490;28;20025;-85
2022/08/29 09:24:59;;;;;;;13.98;4.75;;;;;;;22.50;45.98;101959.53;5026995;28;20076;-83
2022/08/29 09:27:29;;;;;;;14.07;3.83;;;;;;;22.73;46.34;101971.47;5027780;28;20051;-85
2022/08/29 09:30:04;;;;;;;13.43;4.22;;;;;;;23.12;44.92;101952.00;5038755;28;20062;-84
2022/08/29 09:32:30;;;;;;;14.48;3.63;;;;;;;23.37;44.68;101950.44;5027140;28;20060;-85
2022/08/29 09:34:55;;;;;;;16.00;4.53;;;;;;;23.33;44.41;101947.41;5028272;28;20029;-85
2022/08/29 09:37:33;;;;;;;13.50;3.65;;;;;;;23.57;43.67;101947.66;5025269;28;20512;-83
2022/08/29 09:40:01;;;;;;;12.35;4.07;;;;;;;22.81;44.85;101949.25;5024772;28;20036;-85
2022/08/29 09:42:36;;;;;;;12.13;3.85;;;;;;;22.40;45.80;101945.16;5038483;28;20107;-85
2022/08/29 09:45:23;;;;;;;11.05;3.72;;;;;;;22.03;47.38;101958.78;5041820;28;20048;-85
2022/08/29 09:48:09;;;;;;;15.23;4.90;;;;;;;21.92;47.52;101960.19;5043765;28;20120;-85
2022/08/29 09:50:35;;;;;;;11.93;3.83;;;;;;;21.63;47.04;101945.56;5043636;28;20617;-85
2022/08/29 09:53:03;;;;;;;10.35;3.45;;;;;;;22.28;46.85;101945.78;5024342;28;20111;-83
2022/08/29 09:55:37;;;;;;;16.98;3.88;;;;;;;22.79;46.47;101938.91;5044528;28;20406;-84
2022/08/29 09:58:11;;;;;;;13.45;3.97;;;;;;;22.77;46.50;101940.13;5023284;28;20049;-84
2022/08/29 10:00:40;;;;;;;8.43;3.72;;;;;;;22.98;45.92;101942.50;5025573;28;20029;-85
2022/08/29 10:03:17;;;;;;;12.70;3.15;;;;;;;22.70;45.27;101934.88;5026617;28;20151;-85
2022/08/29 10:05:44;;;;;;;9.88;3.22;;;;;;;22.65;45.19;101937.34;5024811;28;20556;-83
2022/08/29 10:08:34;;;;;;;11.93;3.72;;;;;;;22.70;44.72;101934.88;5043749;28;20122;-84
2022/08/29 10:11:20;;;;;;;9.82;3.30;;;;;;;22.69;45.01;101931.41;5025691;28;20090;-84
2022/08/29 10:13:52;;;;;;;12.10;3.50;;;;;;;22.92;44.29;101928.28;5045934;28;20112;-85
2022/08/29 10:16:43;;;;;;;14.87;3.23;;;;;;;22.93;44.04;101927.25;5040121;28;20086;-84
2022/08/29 10:19:14;;;;;;;12.85;4.25;;;;;;;22.83;44.82;101931.34;5040869;28;20147;-84
2022/08/29 10:22:04;;;;;;;14.50;3.88;;;;;;;22.08;45.79;101929.94;5039978;28;20060;-83
2022/08/29 10:25:03;;;;;;;16.50;4.13;;;;;;;21.69;46.82;101928.94;5044750;28;20087;-86
2022/08/29 10:27:44;;;;;;;12.32;4.00;;;;;;;21.96;46.61;101927.13;5046913;28;20036;-84
2022/08/29 10:30:16;;;;;;;14.32;4.20;;;;;;;22.13;45.73;101922.22;5025954;28;20436;-86
2022/08/29 10:33:12;;;;;;;11.15;3.47;;;;;;;22.42;45.02;101927.25;5036035;28;20041;-85
2022/08/29 10:35:51;;;;;;;14.50;5.15;;;;;;;22.71;44.52;101918.78;5039770;28;20125;-85
2022/08/29 10:38:32;;;;;;;11.88;4.60;;;;;;;23.15;43.34;101926.13;5035448;28;20103;-85
2022/08/29 10:41:18;;;;;;;13.55;3.67;;;;;;;22.97;43.68;101919.72;5029656;28;20245;-84
2022/08/29 10:43:57;;;;;;;8.02;3.22;;;;;;;22.91;43.31;101918.72;5026275;28;20112;-84
2022/08/29 10:46:41;;;;;;;9.15;3.65;;;;;;;22.93;42.94;101913.22;5033811;28;20037;-86
2022/08/29 10:49:30;;;;;;;12.52;3.60;;;;;;;23.13;42.91;101918.41;5021253;28;20037;-85
2022/08/29 10:52:34;;;;;;;11.68;3.58;;;;;;;22.82;43.95;101911.25;5031896;28;20482;-86
2022/08/29 10:55:18;;;;;;;14.45;4.25;;;;;;;23.24;43.88;101901.06;5041522;28;20115;-83
2022/08/29 10:58:28;;;;;;;10.82;3.88;;;;;;;23.61;42.34;101887.97;5028360;28;20033;-85
2022/08/29 11:01:10;;;;;;;9.30;3.47;;;;;;;23.76;41.64;101901.69;5027472;28;20029;-85
2022/08/29 11:03:52;;;;;;;17.65;4.43;;;;;;;23.52;41.43;101890.88;5026600;28;20037;-85
2022/08/29 11:06:26;;;;;;;13.40;3.53;;;;;;;23.18;42.69;101894.78;5046316;28;20030;-85
2022/08/29 11:09:13;;;;;;;13.18;3.85;;;;;;;23.33;42.29;101881.25;5037023;28;20037;-85
2022/08/29 11:11:44;;;;;;;11.00;3.90;;;;;;;23.41;42.31;101882.81;5026616;28;20041;-85
2022/08/29 11:14:23;;;;;;;12.75;4.18;;;;;;;23.35;42.71;101879.19;5040649;28;20040;-84
2022/08/29 11:16:52;;;;;;;10.60;3.97;;;;;;;23.03;42.84;101876.56;5025201;28;20029;-85
2022/08/29 11:20:01;;;;;;;11.95;4.38;;;;;;;23.33;42.25;101873.31;5038857;28;20043;-86
2022/08/29 11:22:39;;;;;;;14.20;4.55;;;;;;;23.24;42.94;101875.41;4992031;28;20600;-86
2022/08/29 11:25:12;;;;;;;16.50;4.40;;;;;;;23.51;42.51;101878.66;5039305;28;20041;-85
2022/08/29 11:27:53;;;;;;;13.95;4.28;;;;;;;23.56;41.65;101872.72;5023384;28;20030;-86
2022/08/29 11:30:31;;;;;;;14.57;4.05;;;;;;;23.75;41.18;101860.31;5026912;28;20041;-84
2022/08/29 11:33:27;;;;;;;12.07;3.95;;;;;;;23.43;42.56;101855.13;5037956;28;20048;-84
2022/08/29 11:36:07;;;;;;;13.27;4.88;;;;;;;23.42;41.99;101866.72;5044564;28;20118;-86
2022/08/29 11:39:23;;;;;;;11.68;3.75;;;;;;;23.66;41.09;101859.81;5041411;28;20069;-83